createdAt,value
2022-11-25T00:01:29.795Z,16.77
2022-11-25T00:03:59.526Z,15.73
2022-11-25T00:06:30.556Z,18.73
2022-11-25T00:09:00.449Z,18.53
2022-11-25T00:11:29.358Z,21.70
2022-11-25T00:13:58.773Z,18.87
2022-11-25T00:16:27.605Z,15.53
2022-11-25T00:18:57.515Z,16.70
2022-11-25T00:21:27.237Z,17.93
2022-11-25T00:23:58.518Z,17.77
2022-11-25T00:26:28.592Z,15.97
2022-11-25T00:28:59.730Z,17.03
2022-11-25T00:31:29.662Z,15.23
2022-11-25T00:33:58.919Z,16.37
2022-11-25T00:36:28.682Z,15.93
2022-11-25T00:39:00.113Z,16.27
2022-11-25T00:41:46.987Z,21.10
2022-11-25T00:44:35.075Z,28.30
2022-11-25T00:47:03.913Z,36.40
2022-11-25T00:49:32.468Z,27.50
2022-11-25T00:52:00.967Z,42.30
2022-11-25T00:54:30.826Z,38.03
2022-11-25T00:56:59.755Z,48.47
2022-11-25T00:59:28.717Z,27.83
2022-11-25T01:01:57.235Z,31.63
2022-11-25T01:04:25.587Z,34.03
2022-11-25T01:06:56.846Z,40.23
2022-11-25T01:09:25.555Z,34.27
2022-11-25T01:11:55.318Z,45.47
2022-11-25T01:14:24.459Z,33.20
2022-11-25T01:16:53.129Z,35.00
2022-11-25T01:19:22.078Z,31.60
2022-11-25T01:21:50.492Z,21.43
2022-11-25T01:24:19.133Z,29.17
2022-11-25T01:26:47.630Z,21.47
2022-11-25T01:29:18.719Z,29.97
2022-11-25T01:31:48.249Z,22.13
2022-11-25T01:34:19.202Z,14.80
2022-11-25T01:36:47.928Z,32.13
2022-11-25T01:39:18.932Z,23.50
2022-11-25T01:41:48.207Z,24.97
2022-11-25T01:44:19.582Z,23.57
2022-11-25T01:46:55.665Z,23.10
2022-11-25T01:49:29.784Z,21.20
2022-11-25T01:52:01.913Z,25.17
2022-11-25T01:54:34.678Z,22.17
2022-11-25T01:57:06.964Z,36.73
2022-11-25T01:59:41.023Z,45.60
2022-11-25T02:02:10.003Z,38.97
2022-11-25T02:04:39.587Z,26.13
2022-11-25T02:07:10.992Z,41.90
2022-11-25T02:09:40.663Z,31.70
2022-11-25T02:12:09.253Z,39.63
2022-11-25T02:14:39.364Z,39.73
2022-11-25T02:17:07.958Z,23.87
2022-11-25T02:19:46.642Z,29.73
2022-11-25T02:22:21.143Z,33.90
2022-11-25T02:24:52.833Z,31.10
2022-11-25T02:27:22.610Z,21.87
2022-11-25T02:29:51.521Z,23.40
2022-11-25T02:32:23.388Z,17.87
2022-11-25T02:34:51.711Z,19.23
2022-11-25T02:37:22.809Z,16.20
2022-11-25T02:39:52.266Z,21.33
2022-11-25T02:42:22.856Z,28.27
2022-11-25T02:44:51.251Z,37.87
2022-11-25T02:47:19.691Z,30.83
2022-11-25T02:49:48.093Z,27.93
2022-11-25T02:52:16.550Z,23.80
2022-11-25T02:54:44.961Z,22.03
2022-11-25T02:57:13.438Z,39.67
2022-11-25T02:59:43.264Z,31.80
2022-11-25T03:02:11.774Z,26.10
2022-11-25T03:04:40.228Z,22.33
2022-11-25T03:07:08.736Z,35.00
2022-11-25T03:09:37.142Z,36.50
2022-11-25T03:12:20.928Z,32.53
2022-11-25T03:14:57.308Z,24.87
2022-11-25T03:17:25.733Z,18.63
2022-11-25T03:19:55.949Z,21.47
2022-11-25T03:22:24.718Z,18.93
2022-11-25T03:24:53.109Z,26.57
2022-11-25T03:27:21.978Z,34.47
2022-11-25T03:29:50.746Z,21.80
2022-11-25T03:32:20.998Z,37.60
2022-11-25T03:34:49.377Z,31.93
2022-11-25T03:37:18.492Z,43.23
2022-11-25T03:39:47.008Z,30.67
2022-11-25T03:42:15.586Z,43.03
2022-11-25T03:44:44.573Z,33.60
2022-11-25T03:47:13.136Z,54.63
2022-11-25T03:49:42.876Z,44.80
2022-11-25T03:52:11.988Z,40.30
2022-11-25T03:54:40.580Z,37.40
2022-11-25T03:57:21.346Z,32.43
2022-11-25T03:59:49.835Z,33.50
2022-11-25T04:02:19.449Z,27.67
2022-11-25T04:04:50.183Z,30.60
2022-11-25T04:07:19.711Z,20.07
2022-11-25T04:09:49.408Z,18.40
2022-11-25T04:12:38.252Z,17.03
2022-11-25T04:15:10.190Z,16.00
2022-11-25T04:17:40.972Z,15.73
2022-11-25T04:20:12.214Z,11.70
2022-11-25T04:22:42.601Z,14.87
2022-11-25T04:25:12.753Z,21.60
2022-11-25T04:27:41.178Z,22.20
2022-11-25T04:30:10.588Z,14.50
2022-11-25T04:32:41.815Z,28.80
2022-11-25T04:35:13.177Z,18.93
2022-11-25T04:37:45.581Z,12.50
2022-11-25T04:40:15.563Z,13.30
2022-11-25T04:42:48.993Z,12.27
2022-11-25T04:45:23.716Z,9.30
2022-11-25T04:47:54.549Z,24.77
2022-11-25T04:50:25.466Z,32.13
2022-11-25T04:53:07.847Z,24.73
2022-11-25T04:55:36.298Z,40.87
2022-11-25T04:58:11.293Z,35.33
2022-11-25T05:00:41.301Z,31.57
2022-11-25T05:03:12.087Z,17.57
2022-11-25T05:05:42.515Z,36.00
2022-11-25T05:08:10.966Z,48.77
2022-11-25T05:10:40.558Z,62.33
2022-11-25T05:13:09.954Z,36.07
2022-11-25T05:15:38.302Z,38.63
2022-11-25T05:18:09.299Z,80.70
2022-11-25T05:20:46.635Z,64.93
2022-11-25T05:23:18.124Z,51.60
2022-11-25T05:25:46.602Z,48.27
2022-11-25T05:28:32.485Z,77.57
2022-11-25T05:31:00.898Z,117.67
2022-11-25T05:33:29.790Z,36.50
2022-11-25T05:36:00.617Z,31.97
2022-11-25T05:38:39.668Z,62.60
2022-11-25T05:41:11.015Z,87.23
2022-11-25T05:43:41.296Z,45.00
2022-11-25T05:46:10.190Z,78.83
2022-11-25T05:48:44.832Z,74.83
2022-11-25T05:51:14.640Z,60.90
2022-11-25T05:53:43.122Z,39.67
2022-11-25T05:56:11.805Z,54.53
2022-11-25T05:59:04.341Z,54.53
2022-11-25T06:01:44.733Z,36.23
2022-11-25T06:04:13.199Z,39.93
2022-11-25T06:06:42.994Z,26.07
2022-11-25T06:09:11.571Z,58.60
2022-11-25T06:11:40.113Z,34.90
2022-11-25T06:14:09.971Z,24.13
2022-11-25T06:16:38.456Z,45.30
2022-11-25T06:19:31.711Z,25.90
2022-11-25T06:22:02.069Z,29.17
2022-11-25T06:24:31.445Z,19.27
2022-11-25T06:27:06.096Z,35.40
2022-11-25T06:29:35.727Z,48.93
2022-11-25T06:32:05.118Z,27.17
2022-11-25T06:34:42.587Z,30.50
2022-11-25T06:37:21.799Z,21.87
2022-11-25T06:39:50.255Z,34.07
2022-11-25T06:42:18.688Z,16.97
2022-11-25T06:44:47.246Z,24.63
2022-11-25T06:47:15.688Z,19.53
2022-11-25T06:49:44.151Z,14.47
2022-11-25T06:52:12.829Z,14.97
2022-11-25T06:54:42.578Z,22.33
2022-11-25T06:57:12.351Z,15.47
2022-11-25T06:59:40.766Z,10.53
2022-11-25T07:02:12.113Z,16.27
2022-11-25T07:04:40.915Z,8.50
2022-11-25T07:07:09.652Z,6.53
2022-11-25T07:09:38.384Z,9.53
2022-11-25T07:12:09.008Z,8.87
2022-11-25T07:14:38.461Z,5.90
2022-11-25T07:17:11.733Z,6.40
2022-11-25T07:19:40.524Z,7.60
2022-11-25T07:22:09.035Z,6.50
2022-11-25T07:24:37.614Z,6.20
2022-11-25T07:27:06.872Z,7.07
2022-11-25T07:29:57.939Z,7.50
2022-11-25T07:32:25.153Z,14.47
2022-11-25T07:34:53.662Z,17.33
2022-11-25T07:37:21.999Z,17.40
2022-11-25T07:39:50.422Z,14.17
2022-11-25T07:42:18.791Z,11.37
2022-11-25T07:44:53.491Z,8.30
2022-11-25T07:47:42.492Z,6.73
2022-11-25T07:50:11.379Z,6.00
2022-11-25T07:52:40.828Z,8.67
2022-11-25T07:55:10.188Z,9.40
2022-11-25T07:57:38.616Z,11.63
2022-11-25T08:00:10.102Z,10.03
2022-11-25T08:02:41.788Z,9.03
2022-11-25T08:05:11.048Z,8.57
2022-11-25T08:07:39.639Z,9.83
2022-11-25T08:10:09.064Z,10.63
2022-11-25T08:12:37.446Z,13.13
2022-11-25T08:15:06.695Z,10.50
2022-11-25T08:17:36.552Z,11.97
2022-11-25T08:20:05.813Z,10.43
2022-11-25T08:22:34.183Z,9.17
2022-11-25T08:25:02.558Z,13.03
2022-11-25T08:27:30.965Z,10.03
2022-11-25T08:29:59.714Z,10.13
2022-11-25T08:32:28.145Z,14.63
2022-11-25T08:34:58.016Z,11.40
2022-11-25T08:37:26.436Z,11.17
2022-11-25T08:40:08.611Z,10.27
2022-11-25T08:42:37.448Z,15.17
2022-11-25T08:45:07.313Z,9.30
2022-11-25T08:47:36.676Z,12.83
2022-11-25T08:50:08.377Z,13.20
2022-11-25T08:52:37.388Z,11.57
2022-11-25T08:55:07.064Z,10.70
2022-11-25T08:57:35.944Z,11.50
2022-11-25T09:00:05.587Z,9.90
2022-11-25T09:02:34.169Z,10.57
2022-11-25T09:05:02.659Z,14.17
2022-11-25T09:07:33.415Z,12.87
2022-11-25T09:10:02.057Z,15.63
2022-11-25T09:12:30.972Z,18.10
2022-11-25T09:14:59.740Z,16.63
2022-11-25T09:17:28.328Z,16.63
2022-11-25T09:19:56.812Z,19.23
2022-11-25T09:22:25.316Z,12.03
2022-11-25T09:24:55.248Z,12.80
2022-11-25T09:27:23.708Z,13.30
2022-11-25T09:29:52.270Z,9.77
2022-11-25T09:32:21.326Z,13.23
2022-11-25T09:34:52.423Z,10.13
2022-11-25T09:37:20.893Z,10.43
2022-11-25T09:39:50.751Z,10.17
2022-11-25T09:42:47.199Z,10.33
2022-11-25T09:45:36.552Z,8.20
2022-11-25T09:48:16.769Z,8.40
2022-11-25T09:50:54.180Z,9.97
2022-11-25T09:53:29.230Z,8.60
2022-11-25T09:56:05.557Z,8.27
2022-11-25T09:58:38.903Z,8.03
2022-11-25T10:01:09.119Z,6.57
2022-11-25T10:03:41.023Z,7.97
2022-11-25T10:06:16.400Z,7.13
2022-11-25T10:08:46.827Z,8.93
2022-11-25T10:11:29.950Z,19.17
2022-11-25T10:14:03.658Z,9.23
2022-11-25T10:16:36.470Z,7.23
2022-11-25T10:19:12.983Z,7.47
2022-11-25T10:21:41.420Z,7.37
2022-11-25T10:24:14.515Z,7.03
2022-11-25T10:26:44.893Z,7.37
2022-11-25T10:29:24.126Z,8.00
2022-11-25T10:31:56.618Z,10.57
2022-11-25T10:34:30.035Z,8.17
2022-11-25T10:36:59.978Z,8.00
2022-11-25T10:39:31.716Z,8.37
2022-11-25T10:42:03.442Z,10.53
2022-11-25T10:44:35.454Z,9.53
2022-11-25T10:47:23.659Z,7.40
2022-11-25T10:50:01.867Z,7.60
2022-11-25T10:52:32.044Z,11.97
2022-11-25T10:55:11.506Z,10.27
2022-11-25T10:57:39.846Z,15.50
2022-11-25T11:00:26.247Z,8.77
2022-11-25T11:02:55.355Z,11.37
2022-11-25T11:05:25.579Z,8.93
2022-11-25T11:08:19.914Z,13.53
2022-11-25T11:10:52.973Z,11.10
2022-11-25T11:13:26.687Z,6.27
2022-11-25T11:15:56.460Z,7.17
2022-11-25T11:18:27.771Z,9.37
2022-11-25T11:20:58.302Z,6.33
2022-11-25T11:23:27.375Z,11.40
2022-11-25T11:26:01.431Z,7.67
2022-11-25T11:28:34.729Z,6.40
2022-11-25T11:31:07.827Z,7.63
2022-11-25T11:33:39.085Z,6.87
2022-11-25T11:36:16.999Z,7.13
2022-11-25T11:38:52.161Z,6.93
2022-11-25T11:41:28.798Z,5.87
2022-11-25T11:44:07.791Z,7.20
2022-11-25T11:46:47.075Z,5.77
2022-11-25T11:49:30.349Z,6.10
2022-11-25T11:52:05.053Z,8.77
2022-11-25T11:54:36.619Z,5.27
2022-11-25T11:57:07.734Z,8.87
2022-11-25T11:59:48.737Z,5.50
2022-11-25T12:02:40.744Z,6.73
2022-11-25T12:05:16.308Z,10.30
2022-11-25T12:08:01.145Z,8.57
2022-11-25T12:10:32.868Z,8.63
2022-11-25T12:13:07.522Z,5.60
2022-11-25T12:15:42.623Z,6.93
2022-11-25T12:18:19.934Z,5.87
2022-11-25T12:20:53.729Z,6.63
2022-11-25T12:23:27.028Z,6.80
2022-11-25T12:25:58.806Z,8.40
2022-11-25T12:28:31.035Z,5.53
2022-11-25T12:31:05.625Z,4.87
2022-11-25T12:33:44.893Z,5.33
2022-11-25T12:36:16.589Z,6.13
2022-11-25T12:38:47.729Z,5.50
2022-11-25T12:41:22.529Z,6.30
2022-11-25T12:43:52.504Z,6.43
2022-11-25T12:46:26.525Z,5.83
2022-11-25T12:48:58.200Z,5.30
2022-11-25T12:51:42.056Z,7.03
2022-11-25T12:54:21.743Z,8.80
2022-11-25T12:57:13.177Z,8.70
2022-11-25T13:00:11.288Z,8.20
2022-11-25T13:03:10.722Z,7.57
2022-11-25T13:06:05.823Z,6.73
2022-11-25T13:08:52.120Z,7.63
2022-11-25T13:11:34.524Z,5.97
2022-11-25T13:14:06.520Z,5.33
2022-11-25T13:16:35.804Z,6.73
2022-11-25T13:19:11.936Z,6.87
2022-11-25T13:22:04.396Z,7.37
2022-11-25T13:24:34.394Z,5.83
2022-11-25T13:27:05.179Z,7.27
2022-11-25T13:30:01.466Z,6.33
2022-11-25T13:32:42.184Z,8.40
2022-11-25T13:35:50.873Z,5.67
2022-11-25T13:39:00.916Z,6.27
2022-11-25T13:41:38.650Z,5.73
2022-11-25T13:44:15.799Z,7.90
2022-11-25T13:46:47.091Z,7.33
2022-11-25T13:49:25.188Z,7.67
2022-11-25T13:51:55.772Z,8.40
2022-11-25T13:54:31.656Z,7.50
2022-11-25T13:57:15.833Z,5.93
2022-11-25T13:59:52.866Z,8.93
2022-11-25T14:02:49.808Z,8.97
2022-11-25T14:05:59.676Z,9.87
2022-11-25T14:08:34.515Z,5.97
2022-11-25T14:11:35.190Z,9.37
2022-11-25T14:14:26.921Z,8.13
2022-11-25T14:17:05.697Z,9.30
2022-11-25T14:19:54.902Z,9.27
2022-11-25T14:22:35.776Z,7.50
2022-11-25T14:25:14.871Z,8.87
2022-11-25T14:27:48.840Z,9.70
2022-11-25T14:30:18.031Z,9.30
2022-11-25T14:32:53.338Z,10.37
2022-11-25T14:35:23.772Z,8.47
2022-11-25T14:37:58.030Z,8.73
2022-11-25T14:40:29.790Z,13.03
2022-11-25T14:43:04.920Z,6.93
2022-11-25T14:45:35.506Z,8.57
2022-11-25T14:48:14.689Z,11.10
2022-11-25T14:50:55.789Z,9.40
2022-11-25T14:53:25.632Z,6.60
2022-11-25T14:55:55.139Z,10.37
2022-11-25T14:58:25.227Z,8.20
2022-11-25T15:01:00.489Z,7.67
2022-11-25T15:03:29.126Z,9.43
2022-11-25T15:06:02.180Z,10.43
2022-11-25T15:08:39.563Z,8.77
2022-11-25T15:11:14.615Z,11.67
2022-11-25T15:13:46.369Z,9.47
2022-11-25T15:16:17.335Z,7.63
2022-11-25T15:18:49.841Z,8.60
2022-11-25T15:21:22.188Z,11.60
2022-11-25T15:23:50.668Z,7.87
2022-11-25T15:26:22.634Z,7.50
2022-11-25T15:28:57.213Z,9.10
2022-11-25T15:31:29.121Z,9.17
2022-11-25T15:34:00.013Z,8.70
2022-11-25T15:36:28.727Z,7.80
2022-11-25T15:39:14.824Z,7.67
2022-11-25T15:41:44.978Z,7.97
2022-11-25T15:44:21.812Z,8.57
2022-11-25T15:46:57.828Z,7.87
2022-11-25T15:49:26.306Z,10.57
2022-11-25T15:51:57.546Z,10.03
2022-11-25T15:54:27.905Z,8.70
2022-11-25T15:56:59.295Z,9.60
2022-11-25T15:59:41.488Z,11.30
2022-11-25T16:02:50.381Z,8.53
2022-11-25T16:05:26.442Z,11.47
2022-11-25T16:08:17.709Z,12.47
2022-11-25T16:11:00.518Z,13.10
2022-11-25T16:13:38.754Z,9.30
2022-11-25T16:16:24.202Z,9.00
2022-11-25T16:18:57.763Z,11.73
2022-11-25T16:21:30.389Z,10.53
2022-11-25T16:24:15.683Z,10.50
2022-11-25T16:26:51.470Z,10.47
2022-11-25T16:29:22.065Z,10.10
2022-11-25T16:31:52.204Z,9.30
2022-11-25T16:34:22.035Z,8.97
2022-11-25T16:36:50.651Z,8.50
2022-11-25T16:39:19.054Z,11.17
2022-11-25T16:41:56.348Z,9.10
2022-11-25T16:44:25.704Z,9.23
2022-11-25T16:46:55.958Z,13.37
2022-11-25T16:49:25.688Z,18.03
2022-11-25T16:51:54.361Z,12.80
2022-11-25T16:54:24.118Z,9.50
2022-11-25T16:56:54.288Z,11.97
2022-11-25T16:59:29.883Z,12.30
2022-11-25T17:02:03.770Z,15.37
2022-11-25T17:04:32.556Z,10.30
2022-11-25T17:07:31.101Z,11.70
2022-11-25T17:09:49.333Z,18.80
2022-11-25T17:12:20.038Z,14.23
2022-11-25T17:14:49.592Z,14.70
2022-11-25T17:17:24.755Z,17.23
2022-11-25T17:19:53.955Z,11.90
2022-11-25T17:22:24.198Z,15.20
2022-11-25T17:24:53.020Z,11.67
2022-11-25T17:27:23.738Z,13.00
2022-11-25T17:29:54.295Z,13.70
2022-11-25T17:32:25.361Z,13.33
2022-11-25T17:34:54.760Z,10.60
2022-11-25T17:37:24.613Z,10.67
2022-11-25T17:39:53.851Z,12.63
2022-11-25T17:42:24.911Z,11.63
2022-11-25T17:44:54.503Z,10.80
2022-11-25T17:47:24.270Z,12.53
2022-11-25T17:49:53.113Z,12.40
2022-11-25T17:52:21.423Z,11.17
2022-11-25T17:54:49.790Z,12.67
2022-11-25T17:57:21.503Z,11.13
2022-11-25T17:59:50.679Z,12.33
2022-11-25T18:02:20.757Z,13.07
2022-11-25T18:04:50.906Z,13.90
2022-11-25T18:07:19.600Z,16.73
2022-11-25T18:09:48.092Z,16.03
2022-11-25T18:12:18.597Z,16.40
2022-11-25T18:14:47.032Z,17.03
2022-11-25T18:17:18.743Z,13.70
2022-11-25T18:19:54.628Z,14.43
2022-11-25T18:22:24.951Z,15.00
2022-11-25T18:24:53.982Z,14.57
2022-11-25T18:27:24.464Z,12.97
2022-11-25T18:29:53.716Z,15.40
2022-11-25T18:32:23.440Z,13.80
2022-11-25T18:34:52.697Z,14.10
2022-11-25T18:37:21.510Z,13.20
2022-11-25T18:39:51.313Z,11.60
2022-11-25T18:42:24.343Z,16.07
2022-11-25T18:44:53.131Z,16.27
2022-11-25T18:47:21.610Z,17.63
2022-11-25T18:49:55.163Z,12.67
2022-11-25T18:52:25.127Z,15.73
2022-11-25T18:54:54.819Z,13.87
2022-11-25T18:57:23.172Z,16.83
2022-11-25T19:00:24.530Z,12.50
2022-11-25T19:02:39.863Z,15.30
2022-11-25T19:05:19.867Z,14.73
2022-11-25T19:07:49.322Z,17.13
2022-11-25T19:10:19.568Z,13.37
2022-11-25T19:12:51.002Z,13.97
2022-11-25T19:15:21.654Z,13.67
2022-11-25T19:17:52.733Z,17.57
2022-11-25T19:20:22.977Z,13.07
2022-11-25T19:22:51.501Z,13.37
2022-11-25T19:25:21.365Z,9.80
2022-11-25T19:27:53.785Z,16.23
2022-11-25T19:30:55.917Z,14.37
2022-11-25T19:33:27.316Z,14.97
2022-11-25T19:35:55.872Z,13.30
2022-11-25T19:38:26.246Z,11.63
2022-11-25T19:40:57.184Z,12.80
2022-11-25T19:43:27.198Z,15.40
2022-11-25T19:45:56.283Z,14.30
2022-11-25T19:48:27.118Z,11.37
2022-11-25T19:51:01.889Z,13.53
2022-11-25T19:53:33.897Z,12.80
2022-11-25T19:56:05.122Z,13.50
2022-11-25T19:58:33.676Z,11.50
2022-11-25T20:01:03.794Z,14.63
2022-11-25T20:03:34.376Z,11.13
2022-11-25T20:06:02.832Z,9.77
2022-11-25T20:08:31.295Z,11.10
2022-11-25T20:10:59.745Z,13.57
2022-11-25T20:13:29.574Z,12.87
2022-11-25T20:15:59.507Z,15.83
2022-11-25T20:18:28.564Z,11.83
2022-11-25T20:21:01.680Z,11.80
2022-11-25T20:23:32.180Z,21.77
2022-11-25T20:26:00.738Z,21.47
2022-11-25T20:28:31.062Z,13.27
2022-11-25T20:30:59.997Z,17.10
2022-11-25T20:33:28.819Z,14.33
2022-11-25T20:36:06.435Z,12.07
2022-11-25T20:38:36.584Z,16.07
2022-11-25T20:41:05.552Z,13.60
2022-11-25T20:43:38.679Z,14.10
2022-11-25T20:46:10.709Z,12.63
2022-11-25T20:48:39.283Z,12.23
2022-11-25T20:51:11.360Z,12.80
2022-11-25T20:53:40.299Z,19.37
2022-11-25T20:56:10.755Z,16.10
2022-11-25T20:58:40.701Z,17.20
2022-11-25T21:01:09.545Z,12.17
2022-11-25T21:03:40.528Z,13.70
2022-11-25T21:06:19.540Z,15.63
2022-11-25T21:08:49.185Z,14.70
2022-11-25T21:11:18.177Z,15.80
2022-11-25T21:13:48.590Z,10.83
2022-11-25T21:16:17.053Z,11.73
2022-11-25T21:18:46.287Z,17.77
2022-11-25T21:21:19.291Z,14.13
2022-11-25T21:23:48.752Z,13.87
2022-11-25T21:26:22.789Z,13.47
2022-11-25T21:28:53.552Z,12.37
2022-11-25T21:31:23.507Z,15.63
2022-11-25T21:33:52.373Z,13.97
2022-11-25T21:36:22.696Z,14.53
2022-11-25T21:38:53.925Z,11.87
2022-11-25T21:41:22.886Z,12.73
2022-11-25T21:43:52.615Z,14.33
2022-11-25T21:46:22.494Z,13.87
2022-11-25T21:48:50.904Z,11.97
2022-11-25T21:51:23.921Z,16.30
2022-11-25T21:53:52.619Z,12.17
2022-11-25T21:56:26.372Z,14.53
2022-11-25T21:58:56.391Z,14.07
2022-11-25T22:01:25.300Z,16.53
2022-11-25T22:03:53.981Z,15.87
2022-11-25T22:06:24.538Z,15.43
2022-11-25T22:08:52.894Z,13.83
2022-11-25T22:11:23.782Z,16.80
2022-11-25T22:13:52.359Z,10.77
2022-11-25T22:16:25.879Z,11.57
2022-11-25T22:18:54.397Z,11.40
2022-11-25T22:21:22.822Z,12.00
2022-11-25T22:23:51.235Z,10.87
2022-11-25T22:26:23.715Z,13.80
2022-11-25T22:28:52.892Z,12.30
2022-11-25T22:31:23.187Z,11.73
2022-11-25T22:33:51.804Z,10.07
2022-11-25T22:36:32.960Z,15.87
2022-11-25T22:39:11.198Z,14.60
2022-11-25T22:41:39.477Z,12.63
2022-11-25T22:44:11.034Z,12.70
2022-11-25T22:46:41.083Z,12.27
2022-11-25T22:49:25.133Z,10.97
2022-11-25T22:51:53.587Z,10.47
2022-11-25T22:54:23.106Z,10.73
2022-11-25T22:56:51.628Z,9.90
2022-11-25T22:59:19.953Z,9.57
2022-11-25T23:01:49.783Z,16.50
2022-11-25T23:04:19.850Z,13.33
2022-11-25T23:06:48.703Z,12.17
2022-11-25T23:09:18.547Z,15.40
2022-11-25T23:11:47.697Z,11.40
2022-11-25T23:14:16.380Z,11.03
2022-11-25T23:16:44.871Z,12.87
2022-11-25T23:19:16.634Z,11.73
2022-11-25T23:21:45.633Z,12.57
2022-11-25T23:24:15.735Z,12.90
2022-11-25T23:26:44.155Z,14.60
2022-11-25T23:29:12.455Z,12.53
2022-11-25T23:31:41.003Z,11.73
2022-11-25T23:34:12.397Z,14.87
2022-11-25T23:36:45.622Z,12.77
2022-11-25T23:39:20.639Z,11.60
2022-11-25T23:41:49.040Z,12.17
2022-11-25T23:44:23.438Z,12.13
2022-11-25T23:46:52.584Z,15.53
2022-11-25T23:49:24.093Z,13.37
2022-11-25T23:51:57.403Z,11.20
2022-11-25T23:54:31.425Z,12.87
2022-11-25T23:57:01.158Z,14.97
2022-11-25T23:59:31.123Z,13.00
